Time;durP1;ratioP1;P1;durP2;ratioP2;P2;SDS_P1;SDS_P2;PMS_P1;PMS_P2;Temp;Humidity;BMP_temperature;BMP_pressure;BME280_temperature;BME280_humidity;BME280_pressure;Samples;Min_cycle;Max_cycle;Signal;HPM_P1;HPM_P2
2023/03/29 00:01:36;;;;;;;13.70;7.00;;;;;;;-5.60;65.95;100031.33;439352;1253;139891;-75
2023/03/29 00:11:42;;;;;;;10.80;6.80;;;;;;;-5.66;66.41;100031.28;439411;1254;139655;-76
2023/03/29 00:21:47;;;;;;;10.10;5.60;;;;;;;-5.67;66.63;100031.95;439515;1253;139483;-78
2023/03/29 00:31:54;;;;;;;7.90;5.10;;;;;;;-5.67;66.82;100032.12;439445;1253;139780;-77
2023/03/29 00:42:00;;;;;;;8.50;5.40;;;;;;;-5.71;67.27;100032.92;439838;1251;139831;-76
2023/03/29 00:52:07;;;;;;;12.50;6.70;;;;;;;-5.87;67.63;100033.79;439676;1253;138824;-76
2023/03/29 01:02:16;;;;;;;9.90;6.70;;;;;;;-6.09;68.18;100027.80;439693;1254;139542;-73
2023/03/29 01:12:28;;;;;;;8.80;5.60;;;;;;;-6.27;68.59;100025.21;439840;1254;139593;-74
2023/03/29 01:22:41;;;;;;;9.60;5.70;;;;;;;-6.43;68.82;100010.73;439214;1253;138912;-74
2023/03/29 01:32:52;;;;;;;9.50;6.40;;;;;;;-6.60;69.26;100008.29;439059;1254;138775;-74
2023/03/29 01:43:09;;;;;;;13.20;6.90;;;;;;;-6.75;69.81;100004.52;438986;1256;139298;-73
2023/03/29 01:53:23;;;;;;;12.00;7.00;;;;;;;-6.94;70.30;100010.73;439147;1251;140052;-74
2023/03/29 02:03:30;;;;;;;12.00;8.20;;;;;;;-7.12;70.75;100008.27;439245;1251;140553;-74
2023/03/29 02:13:36;;;;;;;17.30;9.50;;;;;;;-7.24;71.31;100009.45;439198;1254;139540;-74
2023/03/29 02:23:46;;;;;;;12.00;8.00;;;;;;;-7.39;71.77;100010.26;439492;1254;139065;-74
2023/03/29 02:33:57;;;;;;;8.90;6.50;;;;;;;-7.56;72.22;100008.77;439200;1253;138972;-73
2023/03/29 02:44:06;;;;;;;14.10;9.10;;;;;;;-7.64;72.93;100003.39;438911;1252;140603;-72
2023/03/29 02:54:17;;;;;;;15.40;8.10;;;;;;;-7.59;73.13;99999.55;439495;1253;139846;-74
2023/03/29 03:04:24;;;;;;;15.30;9.20;;;;;;;-7.71;73.51;99994.74;439480;1254;138960;-75
2023/03/29 03:14:29;;;;;;;12.60;8.40;;;;;;;-7.84;73.82;100000.15;439041;1254;139168;-74
2023/03/29 03:24:35;;;;;;;19.50;13.00;;;;;;;-8.03;74.10;99999.98;438989;1253;140147;-73
2023/03/29 03:34:41;;;;;;;19.10;11.20;;;;;;;-8.22;74.37;99999.30;439002;1252;139389;-75
2023/03/29 03:44:47;;;;;;;15.80;9.50;;;;;;;-8.31;74.82;100007.13;438848;1253;140818;-74
2023/03/29 03:54:53;;;;;;;17.60;10.10;;;;;;;-8.35;75.38;100018.25;439307;1253;139924;-75
2023/03/29 04:05:01;;;;;;;18.80;11.30;;;;;;;-8.47;75.60;100020.05;439447;1251;140012;-75
2023/03/29 04:15:09;;;;;;;17.70;11.10;;;;;;;-8.58;76.10;100028.00;439287;1251;139472;-74
2023/03/29 04:25:15;;;;;;;20.80;12.40;;;;;;;-8.62;76.33;100034.21;439063;1254;140073;-74
2023/03/29 04:35:21;;;;;;;25.00;16.00;;;;;;;-8.62;76.63;100031.30;439116;1251;140918;-74
2023/03/29 04:45:27;;;;;;;27.30;18.30;;;;;;;-8.58;76.95;100030.38;439373;1251;139545;-74
2023/03/29 04:55:33;;;;;;;29.30;18.50;;;;;;;-8.42;77.06;100021.84;439144;1253;139518;-74
2023/03/29 05:05:39;;;;;;;36.60;22.50;;;;;;;-8.19;77.19;100026.36;439353;1250;140502;-74
2023/03/29 05:15:44;;;;;;;34.50;23.20;;;;;;;-7.81;77.45;100026.89;439296;1251;139434;-74
2023/03/29 05:25:51;;;;;;;36.40;22.10;;;;;;;-7.28;77.77;100026.23;439277;1251;140102;-73
2023/03/29 05:36:05;;;;;;;50.00;25.60;;;;;;;-4.63;79.00;100021.25;439398;1251;141237;-74
2023/03/29 05:46:11;;;;;;;43.90;27.10;;;;;;;4.69;73.30;100010.88;439376;1250;140307;-73
2023/03/29 05:56:17;;;;;;;33.00;22.10;;;;;;;12.45;61.66;100000.56;439047;1251;139070;-73
2023/03/29 06:06:23;;;;;;;20.40;14.50;;;;;;;16.49;53.28;99988.23;438875;1251;139157;-71
2023/03/29 06:16:30;;;;;;;17.40;11.90;;;;;;;19.77;47.49;99980.25;438980;1250;139261;-71
2023/03/29 06:26:35;;;;;;;15.80;10.90;;;;;;;23.31;43.28;99972.84;438853;1249;140375;-72
2023/03/29 06:36:41;;;;;;;13.50;9.70;;;;;;;24.78;39.00;99969.91;438883;1251;138864;-72
2023/03/29 06:46:47;;;;;;;16.50;10.40;;;;;;;26.14;35.77;99971.90;438872;1251;138081;-72
2023/03/29 06:56:53;;;;;;;10.20;8.50;;;;;;;27.74;33.00;99968.45;439039;1250;138517;-76
2023/03/29 07:07:01;;;;;;;9.90;8.10;;;;;;;29.05;30.78;99962.83;439048;1251;138611;-72
2023/03/29 07:17:07;;;;;;;9.80;7.90;;;;;;;29.96;28.65;99954.61;439009;1253;138052;-75
2023/03/29 07:27:13;;;;;;;7.20;5.90;;;;;;;31.25;26.97;99952.17;438955;1251;138512;-73
2023/03/29 07:37:19;;;;;;;6.30;5.70;;;;;;;31.94;25.31;99952.50;438944;1250;138570;-73
2023/03/29 07:47:26;;;;;;;7.40;6.70;;;;;;;32.81;23.82;99943.92;439577;1250;138634;-71
2023/03/29 07:57:32;;;;;;;10.30;5.60;;;;;;;33.28;22.77;99945.88;439176;1251;138590;-72
2023/03/29 08:07:38;;;;;;;6.30;4.50;;;;;;;34.01;21.73;99936.88;438980;1252;138751;-72
2023/03/29 08:17:44;;;;;;;5.90;4.80;;;;;;;32.32;20.44;99925.77;438958;1253;137983;-72
2023/03/29 08:27:50;;;;;;;3.00;2.70;;;;;;;31.59;20.12;99920.07;438981;1251;138047;-72
2023/03/29 08:37:56;;;;;;;4.30;3.90;;;;;;;32.22;19.82;99912.79;439019;1251;138850;-72
2023/03/29 08:48:09;;;;;;;7.50;3.50;;;;;;;33.32;19.17;99906.52;438901;1253;138275;-73
2023/03/29 08:58:18;;;;;;;3.30;2.90;;;;;;;28.66;18.31;99903.23;439382;1250;137962;-74
2023/03/29 09:08:26;;;;;;;5.90;3.00;;;;;;;18.15;20.58;99907.53;439044;1251;138698;-74
2023/03/29 09:18:41;;;;;;;4.60;2.50;;;;;;;13.56;22.72;99911.91;439046;1250;138577;-75
2023/03/29 09:28:56;;;;;;;5.60;2.20;;;;;;;11.43;24.24;99910.88;439714;1250;140258;-75
2023/03/29 09:39:03;;;;;;;4.70;2.10;;;;;;;10.36;25.51;99908.11;439069;1251;138075;-74
2023/03/29 09:49:16;;;;;;;4.00;2.70;;;;;;;9.44;26.84;99912.35;439179;1253;138070;-75
2023/03/29 09:59:22;;;;;;;4.10;2.20;;;;;;;8.92;27.10;99906.12;439090;1250;138145;-75
2023/03/29 10:09:33;;;;;;;3.30;2.20;;;;;;;8.35;27.79;99898.86;439475;1250;137665;-74
2023/03/29 10:19:47;;;;;;;2.60;1.80;;;;;;;7.96;28.73;99898.48;439545;1253;137792;-73
2023/03/29 10:29:54;;;;;;;4.10;2.10;;;;;;;7.56;29.52;99890.23;439396;1250;138561;-74
2023/03/29 10:40:00;;;;;;;2.10;1.90;;;;;;;7.07;30.58;99897.84;439241;1250;137867;-74
2023/03/29 10:50:11;;;;;;;4.30;1.70;;;;;;;6.80;30.68;99881.98;438893;1250;195332;-74
2023/03/29 11:00:21;;;;;;;4.90;2.90;;;;;;;6.55;30.68;99875.91;438935;1253;138047;-73
2023/03/29 11:10:37;;;;;;;3.80;1.80;;;;;;;6.31;31.13;99861.76;439247;1251;138189;-74
2023/03/29 11:20:54;;;;;;;3.50;2.00;;;;;;;6.29;31.44;99855.09;438869;1250;139934;-73
2023/03/29 11:31:08;;;;;;;4.90;2.50;;;;;;;6.41;31.07;99838.90;438994;1251;137980;-73
2023/03/29 11:41:19;;;;;;;2.40;2.00;;;;;;;6.55;31.75;99823.90;439111;1250;138176;-73
2023/03/29 11:51:27;;;;;;;1.50;1.40;;;;;;;6.51;31.75;99806.16;439182;1253;137659;-74
2023/03/29 12:01:39;;;;;;;2.40;1.90;;;;;;;6.57;31.66;99795.26;439336;1250;138012;-74
2023/03/29 12:11:52;;;;;;;2.50;2.10;;;;;;;6.61;32.00;99787.11;439184;1251;138002;-73
2023/03/29 12:22:00;;;;;;;2.00;1.70;;;;;;;6.66;32.42;99772.80;439287;1253;138961;-72
2023/03/29 12:32:22;;;;;;;1.10;0.90;;;;;;;6.78;32.16;99765.29;438963;1250;138321;-73
2023/03/29 12:42:28;;;;;;;3.40;1.80;;;;;;;6.86;31.73;99745.63;439134;1249;137848;-73
2023/03/29 12:52:36;;;;;;;2.90;1.80;;;;;;;6.92;32.10;99736.16;439260;1250;137695;-73
2023/03/29 13:02:40;;;;;;;;;;;;;;;6.94;32.63;99725.08;439140;1250;137894;-73
2023/03/29 13:12:49;;;;;;;5.50;2.30;;;;;;;6.93;33.26;99718.16;439872;1251;124994;-72
2023/03/29 13:23:09;;;;;;;3.10;2.00;;;;;;;7.03;33.26;99705.17;439847;1250;137581;-72
2023/03/29 13:33:33;;;;;;;5.10;2.00;;;;;;;7.07;32.95;99698.20;439309;1250;137682;-72
2023/03/29 13:43:52;;;;;;;3.10;2.00;;;;;;;7.12;33.40;99687.33;439216;1253;137694;-72
2023/03/29 13:54:01;;;;;;;2.60;1.30;;;;;;;7.28;33.40;99676.27;439114;1250;138220;-71
2023/03/29 14:04:13;;;;;;;2.60;1.80;;;;;;;7.36;33.64;99672.09;439376;1251;137712;-73
2023/03/29 14:14:23;;;;;;;3.20;2.10;;;;;;;7.36;34.03;99668.57;439520;1251;139928;-72
2023/03/29 14:24:37;;;;;;;3.60;2.60;;;;;;;7.42;34.04;99664.44;439074;1251;138728;-72
2023/03/29 14:34:47;;;;;;;2.70;2.10;;;;;;;7.60;34.56;99654.14;439306;1251;137719;-74
2023/03/29 14:44:57;;;;;;;3.70;2.40;;;;;;;7.66;34.91;99652.63;439940;1253;137872;-73
2023/03/29 14:55:04;;;;;;;4.90;2.30;;;;;;;7.67;35.18;99647.73;440027;1251;137780;-72
2023/03/29 15:05:24;;;;;;;3.90;2.20;;;;;;;7.47;35.67;99639.28;439437;1253;139054;-71
2023/03/29 15:15:34;;;;;;;6.60;2.50;;;;;;;7.10;35.99;99641.66;439537;1253;137677;-72
2023/03/29 15:25:48;;;;;;;3.30;2.40;;;;;;;6.76;36.61;99641.67;439452;1253;139457;-73
2023/03/29 15:35:55;;;;;;;3.10;2.70;;;;;;;6.65;37.28;99629.66;439489;1249;138874;-73
2023/03/29 15:46:02;;;;;;;3.90;2.40;;;;;;;6.64;37.46;99625.38;439575;1253;137698;-73
2023/03/29 15:56:15;;;;;;;5.70;4.50;;;;;;;6.66;37.83;99618.51;440236;1250;138617;-74
2023/03/29 16:06:22;;;;;;;8.50;4.90;;;;;;;6.60;38.14;99606.41;440081;1251;138603;-74
2023/03/29 16:16:28;;;;;;;5.20;4.30;;;;;;;6.42;38.72;99591.80;439930;1251;138084;-73
2023/03/29 16:26:35;;;;;;;7.60;5.10;;;;;;;6.32;39.05;99587.02;439943;1251;139306;-72
2023/03/29 16:36:42;;;;;;;7.40;3.50;;;;;;;6.32;39.29;99589.61;439856;1251;140019;-72
2023/03/29 16:46:47;;;;;;;;;;;;;;;6.23;39.21;99577.71;439961;1253;137777;-73
2023/03/29 16:56:53;;;;;;;8.10;6.40;;;;;;;6.01;39.50;99563.90;440076;1253;124950;-73
2023/03/29 17:06:59;;;;;;;28.80;17.90;;;;;;;5.72;39.83;99564.64;439052;1253;137618;-73
2023/03/29 17:17:05;;;;;;;56.40;35.30;;;;;;;5.37;40.82;99574.34;439190;1253;139708;-73
2023/03/29 17:27:11;;;;;;;34.30;21.70;;;;;;;5.02;41.41;99579.94;439309;1251;138671;-72
2023/03/29 17:37:17;;;;;;;31.80;17.40;;;;;;;4.67;42.54;99591.42;438987;1253;138502;-72
2023/03/29 17:47:24;;;;;;;20.50;11.80;;;;;;;4.38;43.10;99587.30;439922;1251;138521;-73
2023/03/29 17:57:36;;;;;;;22.20;14.30;;;;;;;4.28;43.52;99588.91;439772;1253;138672;-74
2023/03/29 18:07:42;;;;;;;21.60;14.40;;;;;;;4.14;43.50;99591.33;439412;1253;138870;-72
2023/03/29 18:17:47;;;;;;;15.20;10.80;;;;;;;3.99;43.89;99589.30;439305;1251;139931;-73
2023/03/29 18:27:53;;;;;;;19.50;13.50;;;;;;;3.88;44.24;99600.06;439386;1251;137972;-73
2023/03/29 18:37:59;;;;;;;26.40;17.40;;;;;;;3.67;44.78;99597.71;439136;1251;139302;-72
2023/03/29 18:48:06;;;;;;;15.50;10.40;;;;;;;3.48;44.78;99595.77;439394;1253;140253;-72
2023/03/29 18:58:11;;;;;;;;;;;;;;;3.24;45.22;99598.13;439830;1251;138501;-73
2023/03/29 19:08:17;;;;;;;20.20;11.00;;;;;;;2.99;45.96;99588.23;439167;1250;124397;-72
2023/03/29 19:18:23;;;;;;;25.10;13.90;;;;;;;2.87;46.35;99588.59;439484;1253;140166;-73
2023/03/29 19:28:29;;;;;;;17.60;11.60;;;;;;;2.92;46.81;99577.90;439779;1251;138001;-72
2023/03/29 19:38:36;;;;;;;17.50;12.10;;;;;;;2.98;46.98;99567.69;439305;1253;138017;-72
2023/03/29 19:48:41;;;;;;;19.70;12.60;;;;;;;3.04;47.38;99553.27;439202;1253;138932;-72
2023/03/29 19:58:50;;;;;;;28.40;15.10;;;;;;;3.10;47.46;99548.42;439311;1253;138098;-71
2023/03/29 20:08:57;;;;;;;19.80;12.70;;;;;;;3.10;47.84;99539.44;440747;1256;139596;-73
2023/03/29 20:19:02;;;;;;;;;;;;;;;3.16;48.06;99521.41;439910;1253;138712;-72
2023/03/29 20:29:08;;;;;;;20.60;11.00;;;;;;;3.26;47.99;99513.64;439970;1253;124961;-73
2023/03/29 20:39:17;;;;;;;19.90;9.80;;;;;;;3.18;48.35;99505.06;439692;1253;138542;-71
2023/03/29 20:49:25;;;;;;;16.60;10.40;;;;;;;3.00;48.96;99495.30;439857;1250;137878;-72
2023/03/29 20:59:31;;;;;;;13.60;9.00;;;;;;;2.88;49.20;99496.41;440486;1253;142479;-73
2023/03/29 21:09:38;;;;;;;17.20;10.10;;;;;;;2.97;49.81;99492.49;439950;1253;137837;-72
2023/03/29 21:19:44;;;;;;;18.80;11.50;;;;;;;2.85;50.15;99495.12;440116;1253;138474;-72
2023/03/29 21:29:50;;;;;;;17.20;9.90;;;;;;;2.60;50.58;99495.09;440002;1253;138041;-72
2023/03/29 21:39:56;;;;;;;13.90;8.70;;;;;;;2.32;51.26;99497.19;440098;1253;137959;-73
2023/03/29 21:50:03;;;;;;;18.10;11.50;;;;;;;2.12;52.08;99496.59;439645;1254;139343;-73
2023/03/29 22:00:14;;;;;;;19.10;12.00;;;;;;;1.95;52.90;99495.00;439841;1252;139539;-74
2023/03/29 22:10:21;;;;;;;22.50;10.70;;;;;;;2.16;53.45;99489.02;439858;1253;138492;-75
2023/03/29 22:20:28;;;;;;;17.30;10.70;;;;;;;2.35;53.41;99483.08;439541;1250;138444;-74
2023/03/29 22:30:33;;;;;;;17.50;11.20;;;;;;;2.52;53.57;99476.33;439776;1254;139035;-76
2023/03/29 22:40:42;;;;;;;21.30;10.70;;;;;;;2.63;53.75;99460.08;439987;1251;137928;-75
2023/03/29 22:50:48;;;;;;;15.30;9.20;;;;;;;2.71;53.85;99450.81;439304;1253;160744;-75
2023/03/29 23:00:54;;;;;;;16.70;9.10;;;;;;;2.76;53.90;99441.30;439613;1251;138933;-74
2023/03/29 23:11:00;;;;;;;17.30;9.30;;;;;;;2.78;53.97;99436.74;439583;1251;139659;-74
2023/03/29 23:21:07;;;;;;;13.70;7.90;;;;;;;2.79;54.01;99431.16;440019;1251;138835;-75
2023/03/29 23:31:16;;;;;;;12.30;7.20;;;;;;;2.82;54.09;99429.18;439779;1252;138392;-75
2023/03/29 23:41:27;;;;;;;12.60;7.10;;;;;;;2.85;54.20;99416.98;439363;1251;138460;-75
2023/03/29 23:51:33;;;;;;;16.80;8.80;;;;;;;2.91;54.45;99412.80;439262;1251;138460;-74
